Latest Weather Observations for Tewantin

IDQ60801

Issued at 6:02 pm EST Friday 22 May 2015 (issued every 30 minutes, with the page automatically refreshed every 10 minutes)

About weather observations | Map of weather stations | Latest weather observations for QLD | Other Formats
Station Details ID: 040908 Name: TEWANTIN RSL PARK Lat: -26.39 Lon: 153.04 Height: 6.4 m
Data from the previous 72 hours. | See also: Recent months at Tewantin
Date/Time
EST
Temp
°C
App
Temp
°C
Dew
Point
Rel
Hum
%
Delta-T
°C
Wind Press
QNH
hPa
Press
MSL
hPa
Rain
since 9 am
mm
Dir
 
Spd
km/h
Gust
km/h
Spd
kts
Gust
kts
22/06:00pm 15.8 12.2 6.8 55 4.4 WSW 15 26 8 14 1017.2 1017.2 0.0
22/05:30pm 16.4 13.2 6.8 53 4.7 SW 13 28 7 15 1017.4 1017.4 0.0
22/05:00pm 17.0 14.6 7.1 52 4.9 WSW 9 19 5 10 1016.9 1016.9 0.0
22/04:30pm 18.2 15.1 7.3 49 5.5 SW 13 28 7 15 1016.5 1016.5 0.0
22/04:00pm 19.0 15.8 6.8 45 6.1 WSW 13 28 7 15 1016.1 1016.1 0.0
22/03:30pm 19.5 17.1 6.9 44 6.4 SW 9 17 5 9 1015.8 1015.8 0.0
22/03:00pm 19.6 16.3 6.3 42 6.6 SW 13 24 7 13 1015.7 1015.7 0.0
22/02:30pm 20.1 16.4 6.1 40 7.0 SW 15 28 8 15 1015.7 1015.7 0.0
22/02:00pm 21.0 17.5 5.4 36 7.7 WSW 13 28 7 15 1015.5 1015.5 0.0
22/01:30pm 21.4 18.9 8.0 42 7.0 SW 11 19 6 10 1015.6 1015.6 0.0
22/01:00pm 20.8 17.7 7.1 41 7.0 WSW 13 26 7 14 1015.9 1015.9 0.0
22/12:30pm 20.8 17.6 6.7 40 7.1 WSW 13 24 7 13 1016.2 1016.2 0.0
22/12:00pm 20.7 18.7 8.7 46 6.3 SW 9 17 5 9 1016.6 1016.6 0.0
22/11:30am 20.3 17.4 8.0 45 6.4 SW 13 20 7 11 1016.9 1016.9 0.0
22/11:00am 19.7 17.1 7.8 46 6.1 W 11 24 6 13 1017.4 1017.4 0.0
22/10:30am 19.9 18.0 9.2 50 5.6 WSW 9 19 5 10 1017.6 1017.6 0.0
22/10:00am 19.2 16.9 9.1 52 5.3 WSW 11 22 6 12 1017.8 1017.8 0.0
22/09:30am 19.1 16.8 9.0 52 5.3 WSW 11 20 6 11 1017.9 1017.9 0.0
22/09:00am 18.9 17.6 11.2 61 4.2 W 9 15 5 8 1017.8 1017.8 4.2
22/08:30am 18.5 18.4 12.0 66 3.6 W 4 9 2 5 1017.9 1017.9 4.2
22/08:00am 17.4 16.8 11.7 69 3.1 N 6 9 3 5 1017.6 1017.6 4.2
22/07:30am 15.6 15.2 12.4 81 1.7 SSE 6 9 3 5 1017.7 1017.7 4.2
22/07:00am 16.5 15.4 13.2 81 1.8 SW 11 22 6 12 1017.2 1017.2 4.2
22/06:30am 17.0 19.3 16.8 99 0.1 CALM 0 0 0 0 1016.7 1016.7 4.2
22/06:00am 16.9 19.2 16.7 99 0.1 CALM 0 0 0 0 1016.5 1016.5 4.2
22/05:30am 16.9 18.4 16.7 99 0.1 NW 4 7 2 4 1016.1 1016.1 4.2
22/05:00am 17.0 18.6 16.8 99 0.1 W 4 7 2 4 1015.8 1015.8 4.0
22/04:30am 17.0 19.3 16.8 99 0.1 CALM 0 6 0 3 1015.5 1015.5 4.0
22/04:00am 17.1 19.5 16.9 99 0.1 CALM 0 7 0 4 1015.7 1015.7 4.0
22/03:30am 17.1 19.5 16.9 99 0.1 CALM 0 0 0 0 1016.3 1016.3 4.0
22/03:00am 17.1 18.7 16.9 99 0.1 W 4 7 2 4 1016.4 1016.4 3.4
22/02:30am 17.1 19.1 16.9 99 0.1 WNW 2 6 1 3 1016.4 1016.4 3.0
22/02:00am 17.2 19.5 16.7 97 0.3 CALM 0 6 0 3 1016.5 1016.5 2.6
22/01:30am 17.4 19.4 16.9 97 0.3 W 2 7 1 4 1016.9 1016.9 1.4
22/01:00am 17.6 18.7 16.5 93 0.7 SW 6 9 3 5 1016.8 1016.8 1.0
22/12:30am 18.3 19.4 16.5 89 1.1 WSW 6 9 3 5 1017.5 1017.5 0.2
22/12:00am 19.3 20.3 16.9 86 1.4 WSW 7 11 4 6 1017.5 1017.5 0.0
 
Date/Time
EST
Temp
°C
App
Temp
°C
Dew
Point
Rel
Hum
%
Delta-T
°C
Wind Press
QNH
hPa
Press
MSL
hPa
Rain
since 9 am
mm
Dir
 
Spd
km/h
Gust
km/h
Spd
kts
Gust
kts
21/11:30pm 19.5 21.9 16.9 85 1.6 CALM 0 0 0 0 1017.3 1017.3 0.0
21/11:00pm 19.7 22.1 17.1 85 1.6 CALM 0 0 0 0 1017.3 1017.3 0.0
21/10:30pm 19.7 22.2 17.3 86 1.5 CALM 0 0 0 0 1017.4 1017.4 0.0
21/10:00pm 19.2 20.4 16.8 86 1.4 WSW 6 9 3 5 1017.6 1017.6 0.0
21/09:30pm 19.7 21.8 16.3 81 2.0 CALM 0 0 0 0 1017.5 1017.5 0.0
21/09:00pm 20.3 22.1 15.5 74 2.8 CALM 0 0 0 0 1017.7 1017.7 0.0
21/08:30pm 20.8 22.8 16.0 74 2.9 CALM 0 0 0 0 1017.5 1017.5 0.0
21/08:00pm 21.4 22.3 16.1 72 3.2 SSW 6 9 3 5 1017.6 1017.6 0.0
21/07:30pm 21.5 22.2 16.0 71 3.3 S 7 11 4 6 1017.5 1017.5 0.0
21/07:00pm 21.7 22.4 17.1 75 2.8 SSW 9 13 5 7 1017.3 1017.3 0.0
21/06:30pm 22.1 22.6 17.5 75 2.8 S 11 19 6 10 1016.9 1016.9 0.0
21/06:00pm 22.8 22.3 17.7 73 3.2 S 17 28 9 15 1016.6 1016.6 0.0
21/05:30pm 22.6 25.7 21.1 91 1.0 NNE 6 9 3 5 1015.9 1015.9 0.0
21/05:00pm 23.1 25.9 20.4 85 1.7 NNE 6 9 3 5 1015.7 1015.7 0.0
21/04:30pm 24.0 26.2 19.7 77 2.8 NE 7 11 4 6 1015.4 1015.4 0.0
21/04:00pm 24.7 27.2 19.1 71 3.6 NE 4 7 2 4 1015.4 1015.4 0.0
21/03:30pm 25.9 27.4 16.7 57 5.7 W 4 9 2 5 1015.2 1015.2 0.0
21/03:00pm 26.4 28.5 18.0 60 5.3 WSW 4 11 2 6 1015.0 1015.0 0.0
21/02:30pm 26.6 27.7 17.9 59 5.5 WNW 9 13 5 7 1015.1 1015.1 0.0
21/02:00pm 26.5 27.3 17.3 57 5.7 WSW 9 15 5 8 1015.4 1015.4 0.0
21/01:30pm 26.9 28.1 18.2 59 5.5 WSW 9 17 5 9 1015.5 1015.5 0.0
21/01:00pm 27.1 28.8 18.4 59 5.5 NW 7 15 4 8 1015.9 1015.9 0.0
21/12:30pm 26.7 27.8 18.0 59 5.5 WNW 9 19 5 10 1016.4 1016.4 0.0
21/12:00pm 25.8 26.1 18.0 62 4.9 NW 13 20 7 11 1017.0 1017.0 0.0
21/11:30am 25.9 28.0 20.2 71 3.7 NW 9 19 5 10 1017.9 1017.9 0.0
21/11:00am 24.2 26.0 19.5 75 3.0 WNW 9 15 5 8 1018.6 1018.6 0.0
21/10:30am 23.4 25.4 19.1 77 2.7 W 7 19 4 10 1019.0 1019.0 0.0
21/10:00am 23.6 26.2 20.1 81 2.3 NW 6 13 3 7 1019.0 1019.0 0.0
21/09:30am 21.8 24.2 19.7 88 1.3 N 6 9 3 5 1019.3 1019.3 0.0
21/09:00am 20.4 22.2 19.6 95 0.5 N 9 13 5 7 1019.6 1019.6 0.0
21/08:30am 20.1 22.3 19.1 94 0.6 NW 6 11 3 6 1019.5 1019.5 0.0
21/08:00am 19.2 21.1 19.0 99 0.1 WNW 7 11 4 6 1019.6 1019.6 0.0
21/07:30am 18.7 20.5 18.7 100 0.0 NW 7 13 4 7 1019.1 1019.1 0.0
21/07:00am 17.6 18.9 17.6 100 0.0 NW 7 11 4 6 1019.0 1019.0 0.0
21/06:30am 17.0 18.0 16.8 99 0.1 NW 7 11 4 6 1018.7 1018.7 0.0
21/06:00am 16.7 18.5 16.5 99 0.1 NNW 2 7 1 4 1018.3 1018.3 0.0
21/05:30am 16.7 18.9 16.5 99 0.1 CALM 0 0 0 0 1018.1 1018.1 0.0
21/05:00am 16.9 19.2 16.7 99 0.1 CALM 0 0 0 0 1017.9 1017.9 0.0
21/04:30am 17.1 19.5 16.9 99 0.1 CALM 0 0 0 0 1017.8 1017.8 0.0
21/04:00am 16.6 18.8 16.4 99 0.1 CALM 0 0 0 0 1018.0 1018.0 0.0
21/03:30am 16.9 19.2 16.7 99 0.1 CALM 0 6 0 3 1017.8 1017.8 0.0
21/03:00am 17.3 19.7 17.1 99 0.1 CALM 0 0 0 0 1017.9 1017.9 0.0
21/02:30am 17.7 20.3 17.5 99 0.1 CALM 0 0 0 0 1018.0 1018.0 0.0
21/02:00am 17.6 20.2 17.4 99 0.1 CALM 0 0 0 0 1018.2 1018.2 0.0
21/01:30am 17.8 20.4 17.6 99 0.1 CALM 0 0 0 0 1018.4 1018.4 0.0
21/01:00am 17.9 20.6 17.7 99 0.1 CALM 0 0 0 0 1018.8 1018.8 0.0
21/12:30am 18.2 21.0 18.0 99 0.1 CALM 0 6 0 3 1018.9 1018.9 0.0
21/12:00am 18.1 20.9 17.9 99 0.1 CALM 0 0 0 0 1019.2 1019.2 0.0
 
Date/Time
EST
Temp
°C
App
Temp
°C
Dew
Point
Rel
Hum
%
Delta-T
°C
Wind Press
QNH
hPa
Press
MSL
hPa
Rain
since 9 am
mm
Dir
 
Spd
km/h
Gust
km/h
Spd
kts
Gust
kts
20/11:30pm 18.5 21.4 18.3 99 0.1 CALM 0 0 0 0 1019.2 1019.2 0.0
20/11:00pm 18.7 21.3 18.5 99 0.1 NNW 2 6 1 3 1019.2 1019.2 0.0
20/10:30pm 18.9 22.0 18.7 99 0.1 CALM 0 0 0 0 1019.3 1019.3 0.0
20/10:00pm 18.9 22.0 18.7 99 0.1 CALM 0 0 0 0 1019.5 1019.5 0.0
20/09:30pm 18.9 22.0 18.7 99 0.1 CALM 0 6 0 3 1019.4 1019.4 0.0
20/09:00pm 19.3 21.8 19.1 99 0.1 NW 4 7 2 4 1019.4 1019.4 0.0
20/08:30pm 19.5 22.8 19.2 98 0.2 CALM 0 0 0 0 1019.2 1019.2 0.0
20/08:00pm 19.8 23.1 19.0 95 0.5 CALM 0 0 0 0 1019.3 1019.3 0.0
20/07:30pm 20.4 23.9 19.6 95 0.5 CALM 0 0 0 0 1019.1 1019.1 0.0
20/07:00pm 20.7 24.0 19.9 95 0.5 SW 2 7 1 4 1019.0 1019.0 0.0
20/06:30pm 21.0 23.7 20.3 96 0.4 N 6 7 3 4 1018.8 1018.8 0.0
20/06:00pm 21.3 25.2 20.3 94 0.6 CALM 0 0 0 0 1018.7 1018.7 0.0
20/05:30pm 21.4 24.7 19.9 91 1.0 NNE 2 6 1 3 1018.5 1018.5 0.0
20/05:00pm 21.8 23.8 19.9 89 1.2 NE 9 13 5 7 1018.1 1018.1 0.0
20/04:30pm 22.3 23.8 19.7 85 1.7 NE 11 19 6 10 1018.0 1018.0 0.0
20/04:00pm 22.6 24.1 19.8 84 1.8 NE 11 17 6 9 1017.8 1017.8 0.0
20/03:30pm 23.0 24.9 19.0 78 2.5 NE 7 11 4 6 1017.7 1017.7 0.0
20/03:00pm 22.9 23.7 19.1 79 2.4 NNE 13 17 7 9 1017.6 1017.6 0.0
20/02:30pm 23.4 24.2 18.1 72 3.3 NNE 11 17 6 9 1017.7 1017.7 0.0
20/02:00pm 23.9 24.7 18.1 70 3.6 NNE 11 17 6 9 1017.6 1017.6 0.0
20/01:30pm 23.9 25.0 18.8 73 3.2 NNE 11 17 6 9 1017.8 1017.8 0.0
20/01:00pm 24.3 25.5 19.1 73 3.3 NNE 11 17 6 9 1018.3 1018.3 0.0
20/12:30pm 23.9 24.3 18.1 70 3.6 NNE 13 19 7 10 1018.6 1018.6 0.0
20/12:00pm 24.7 25.8 18.9 70 3.7 NE 11 15 6 8 1018.9 1018.9 0.0
20/11:30am 25.1 26.8 18.1 65 4.4 NE 6 9 3 5 1019.5 1019.5 0.0
20/11:00am 24.9 26.3 18.6 68 4.0 NNE 9 13 5 7 1019.8 1019.8 0.0
20/10:30am 24.5 26.3 18.7 70 3.7 NE 7 11 4 6 1020.1 1020.1 0.0
20/10:00am 24.0 25.8 18.2 70 3.6 NNW 6 9 3 5 1020.5 1020.5 0.0
20/09:30am 23.4 25.8 18.7 75 3.0 NNW 4 7 2 4 1020.7 1020.7 0.0
20/09:00am 22.1 24.6 18.1 78 2.5 NNW 2 7 1 4 1020.5 1020.5 -
20/08:30am 21.3 24.3 18.5 84 1.8 CALM 0 0 0 0 1020.4 1020.4 -
20/08:00am 19.7 22.7 18.5 93 0.7 CALM 0 0 0 0 1020.3 1020.3 -
20/07:30am 18.3 21.2 18.1 99 0.1 CALM 0 0 0 0 1020.4 1020.4 -
20/07:00am 17.4 19.9 17.2 99 0.1 CALM 0 9 0 5 1020.2 1020.2 -
20/06:30am 16.8 19.0 16.6 99 0.1 CALM 0 0 0 0 1019.9 1019.9 -
20/06:00am 16.9 19.2 16.7 99 0.1 CALM 0 0 0 0 1019.5 1019.5 -
20/05:30am 16.9 19.2 16.7 99 0.1 CALM 0 0 0 0 1019.3 1019.3 -
20/05:00am 16.8 19.0 16.6 99 0.1 CALM 0 0 0 0 1019.2 1019.2 -
20/04:30am 16.6 18.8 16.4 99 0.1 CALM 0 0 0 0 1018.8 1018.8 -
20/04:00am 16.8 19.0 16.6 99 0.1 CALM 0 0 0 0 1018.7 1018.7 -
20/03:30am 16.7 18.9 16.5 99 0.1 CALM 0 0 0 0 1018.8 1018.8 -
20/03:00am 16.8 19.0 16.6 99 0.1 CALM 0 0 0 0 1019.0 1019.0 0.0
20/02:30am 17.2 19.6 17.0 99 0.1 CALM 0 0 0 0 1018.7 1018.7 -
20/02:00am 17.4 19.5 17.2 99 0.1 NW 2 7 1 4 1018.7 1018.7 -
20/01:30am 18.1 20.9 17.9 99 0.1 CALM 0 0 0 0 1019.0 1019.0 -
20/01:00am 18.2 21.0 18.0 99 0.1 CALM 0 0 0 0 1019.2 1019.2 -
20/12:30am 18.0 20.3 17.8 99 0.1 SSW 2 11 1 6 1019.5 1019.5 -
20/12:00am 17.6 20.2 17.4 99 0.1 CALM 0 0 0 0 1019.6 1019.6 -
 
Date/Time
EST
Temp
°C
App
Temp
°C
Dew
Point
Rel
Hum
%
Delta-T
°C
Wind Press
QNH
hPa
Press
MSL
hPa
Rain
since 9 am
mm
Dir
 
Spd
km/h
Gust
km/h
Spd
kts
Gust
kts
19/11:30pm 17.7 20.3 17.5 99 0.1 CALM 0 0 0 0 1020.1 1020.1 -
19/11:00pm 18.0 20.7 17.8 99 0.1 CALM 0 6 0 3 1020.0 1020.0 -
19/10:30pm 18.4 21.3 18.2 99 0.1 CALM 0 0 0 0 1020.1 1020.1 -
19/10:00pm 18.8 21.9 18.6 99 0.1 CALM 0 0 0 0 1020.4 1020.4 -
19/09:30pm 18.8 21.9 18.6 99 0.1 CALM 0 2 0 1 1020.6 1020.6 -
19/09:00pm 19.0 21.7 18.7 98 0.2 S 2 7 1 4 1020.6 1020.6 0.0
19/08:30pm 19.2 22.4 18.9 98 0.2 CALM 0 6 0 3 1020.5 1020.5 -
19/08:00pm 19.3 22.2 19.0 98 0.2 SSW 2 7 1 4 1020.3 1020.3 -
19/07:30pm 19.4 21.8 18.9 97 0.3 SW 4 7 2 4 1020.0 1020.0 -
19/07:00pm 19.6 22.4 18.9 96 0.4 SSW 2 7 1 4 1019.7 1019.7 -
19/06:30pm 20.0 23.3 19.0 94 0.6 CALM 0 6 0 3 1019.5 1019.5 -

Other Formats:

Comma delimited format used in spreadsheet applications
http://www.bom.gov.au/fwo/IDQ60801/IDQ60801.94570.axf

JavaScript Object Notation format (JSON) in row-major order
http://www.bom.gov.au/fwo/IDQ60801/IDQ60801.94570.json